Time,TemperatureF,DewpointF,PressureIn,WindDirection,WindDirectionDegrees,WindSpeedMPH,WindSpeedGustMPH,Humidity,HourlyPrecipIn,Conditions,Clouds,dailyrainin,SoftwareType,DateUTC
2013-05-26 00:00:00,76.3,76.3,30.14,NE,45,3.0,8.0,100,0.00,,,-99.99,WeatherLink 5.5,2013-05-26 04:00:00,
2013-05-26 00:05:00,76.4,76.4,30.14,NE,45,0.0,8.0,100,0.00,,,-99.99,WeatherLink 5.5,2013-05-26 04:05:00,
2013-05-26 00:10:00,76.4,76.4,30.14,NE,45,0.0,8.0,100,0.00,,,-99.99,WeatherLink 5.5,2013-05-26 04:10:00,
2013-05-26 00:20:00,76.3,76.3,30.14,NE,45,1.0,5.0,100,0.00,,,-99.99,WeatherLink 5.5,2013-05-26 04:20:00,
2013-05-26 00:30:00,76.4,76.4,30.14,ENE,67,1.0,5.0,100,0.00,,,-99.99,WeatherLink 5.5,2013-05-26 04:30:00,
2013-05-26 00:35:00,76.4,76.4,30.15,ENE,67,1.0,5.0,100,0.00,,,-99.99,WeatherLink 5.5,2013-05-26 04:35:00,
2013-05-26 00:45:00,76.1,76.1,30.14,NE,45,1.0,5.0,100,0.00,,,-99.99,WeatherLink 5.5,2013-05-26 04:45:00,
2013-05-26 00:55:00,76.1,76.1,30.14,ENE,67,2.0,8.0,100,0.00,,,-99.99,WeatherLink 5.5,2013-05-26 04:55:00,
2013-05-26 01:05:00,76.0,76.0,30.13,NE,45,1.0,5.0,100,0.00,,,-99.99,WeatherLink 5.5,2013-05-26 05:05:00,
2013-05-26 01:10:00,76.1,76.1,30.14,ENE,67,2.0,7.0,100,0.00,,,-99.99,WeatherLink 5.5,2013-05-26 05:10:00,
2013-05-26 01:15:00,76.1,75.8,30.13,ENE,67,0.0,1.0,99,0.00,,,-99.99,WeatherLink 5.5,2013-05-26 05:15:00,
2013-05-26 01:25:00,75.9,74.0,30.14,ENE,67,1.0,6.0,94,0.00,,,-99.99,WeatherLink 5.5,2013-05-26 05:25:00,
2013-05-26 01:30:00,75.8,73.0,30.14,ENE,67,0.0,5.0,91,0.00,,,-99.99,WeatherLink 5.5,2013-05-26 05:30:00,
2013-05-26 01:40:00,75.7,72.2,30.13,ENE,67,1.0,4.0,89,0.00,,,-99.99,WeatherLink 5.5,2013-05-26 05:40:00,
2013-05-26 01:50:00,75.5,71.0,30.13,NE,45,1.0,7.0,86,0.00,,,-99.99,WeatherLink 5.5,2013-05-26 05:50:00,
2013-05-26 02:00:00,75.3,70.1,30.13,NE,45,1.0,5.0,84,0.00,,,-99.99,WeatherLink 5.5,2013-05-26 06:00:00,
2013-05-26 02:10:00,75.0,69.5,30.13,NE,45,0.0,4.0,83,0.00,,,-99.99,WeatherLink 5.5,2013-05-26 06:10:00,
2013-05-26 02:20:00,74.9,68.7,30.13,NE,45,1.0,4.0,81,0.00,,,-99.99,WeatherLink 5.5,2013-05-26 06:20:00,
2013-05-26 02:25:00,74.7,68.8,30.12,NE,45,0.0,4.0,82,0.00,,,-99.99,WeatherLink 5.5,2013-05-26 06:25:00,
2013-05-26 02:35:00,74.2,68.0,30.12,NE,45,0.0,3.0,81,0.00,,,-99.99,WeatherLink 5.5,2013-05-26 06:35:00,
2013-05-26 02:40:00,74.1,67.9,30.12,North,-999,0.0,1.0,81,0.00,,,-99.99,WeatherLink 5.5,2013-05-26 06:40:00,
2013-05-26 02:45:00,73.9,68.1,30.11,North,-999,0.0,0.0,82,0.00,,,-99.99,WeatherLink 5.5,2013-05-26 06:45:00,
2013-05-26 02:50:00,73.5,67.7,30.11,North,-999,0.0,0.0,82,0.00,,,-99.99,WeatherLink 5.5,2013-05-26 06:50:00,
2013-05-26 03:00:00,73.3,67.8,30.11,North,-999,0.0,0.0,83,0.00,,,-99.99,WeatherLink 5.5,2013-05-26 07:00:00,
2013-05-26 03:10:00,72.8,68.0,30.11,North,-999,0.0,0.0,85,0.00,,,-99.99,WeatherLink 5.5,2013-05-26 07:10:00,
2013-05-26 03:20:00,72.2,69.4,30.11,North,-999,0.0,0.0,91,0.00,,,-99.99,WeatherLink 5.5,2013-05-26 07:20:00,
2013-05-26 03:30:00,72.1,70.6,30.10,NE,45,0.0,2.0,95,0.00,,,-99.99,WeatherLink 5.5,2013-05-26 07:30:00,
2013-05-26 03:40:00,72.1,71.5,30.09,NE,45,0.0,2.0,98,0.00,,,-99.99,WeatherLink 5.5,2013-05-26 07:40:00,
2013-05-26 03:45:00,72.1,71.8,30.09,North,-999,0.0,0.0,99,0.00,,,-99.99,WeatherLink 5.5,2013-05-26 07:45:00,
2013-05-26 03:55:00,71.9,71.9,30.09,NE,45,0.0,1.0,100,0.00,,,-99.99,WeatherLink 5.5,2013-05-26 07:55:00,
2013-05-26 04:00:00,71.8,71.8,30.09,North,-999,0.0,0.0,100,0.00,,,-99.99,WeatherLink 5.5,2013-05-26 08:00:00,
2013-05-26 04:11:00,71.4,71.4,30.09,North,-999,0.0,0.0,100,0.00,,,-99.99,WeatherLink 5.5,2013-05-26 08:11:00,
2013-05-26 04:20:00,71.7,71.7,30.09,NE,45,0.0,2.0,100,0.00,,,-99.99,WeatherLink 5.5,2013-05-26 08:20:00,
2013-05-26 04:25:00,71.7,71.7,30.09,North,-999,0.0,0.0,100,0.00,,,-99.99,WeatherLink 5.5,2013-05-26 08:25:00,
2013-05-26 04:35:00,71.6,71.6,30.09,North,-999,0.0,0.0,100,0.00,,,-99.99,WeatherLink 5.5,2013-05-26 08:35:00,
2013-05-26 04:41:00,71.2,71.2,30.09,North,-999,0.0,0.0,100,0.00,,,-99.99,WeatherLink 5.5,2013-05-26 08:41:00,
2013-05-26 04:50:00,70.4,70.4,30.09,North,-999,0.0,0.0,100,0.00,,,-99.99,WeatherLink 5.5,2013-05-26 08:50:00,
2013-05-26 05:01:00,70.2,70.2,30.09,North,-999,0.0,0.0,100,0.00,,,-99.99,WeatherLink 5.5,2013-05-26 09:01:00,
2013-05-26 05:10:00,70.4,70.4,30.09,North,-999,0.0,0.0,100,0.00,,,-99.99,WeatherLink 5.5,2013-05-26 09:10:00,
2013-05-26 05:20:00,70.7,70.7,30.09,North,-999,0.0,0.0,100,0.00,,,-99.99,WeatherLink 5.5,2013-05-26 09:20:00,
2013-05-26 05:30:00,70.4,70.4,30.09,North,-999,0.0,0.0,100,0.00,,,-99.99,WeatherLink 5.5,2013-05-26 09:30:00,
2013-05-26 05:36:00,70.0,70.0,30.09,North,-999,0.0,0.0,100,0.00,,,-99.99,WeatherLink 5.5,2013-05-26 09:36:00,
2013-05-26 05:45:00,69.7,69.7,30.10,North,-999,0.0,0.0,100,0.00,,,-99.99,WeatherLink 5.5,2013-05-26 09:45:00,
2013-05-26 05:50:00,69.5,69.5,30.10,North,-999,0.0,0.0,100,0.00,,,-99.99,WeatherLink 5.5,2013-05-26 09:50:00,
2013-05-26 06:00:00,69.0,69.0,30.10,North,-999,0.0,0.0,100,0.00,,,-99.99,WeatherLink 5.5,2013-05-26 10:00:00,
2013-05-26 06:05:00,68.9,68.9,30.10,North,-999,0.0,0.0,100,0.00,,,-99.99,WeatherLink 5.5,2013-05-26 10:05:00,
2013-05-26 06:15:00,69.1,69.1,30.10,North,-999,0.0,0.0,100,0.00,,,-99.99,WeatherLink 5.5,2013-05-26 10:15:00,
2013-05-26 06:25:00,69.4,69.4,30.10,North,-999,0.0,0.0,100,0.00,,,-99.99,WeatherLink 5.5,2013-05-26 10:25:00,
2013-05-26 06:35:00,69.6,69.6,30.10,North,-999,0.0,0.0,100,0.00,,,-99.99,WeatherLink 5.5,2013-05-26 10:35:00,
2013-05-26 06:45:00,69.6,-99.9,30.10,North,-999,0.0,0.0,0,0.00,,,-99.99,WeatherLink 5.5,2013-05-26 10:45:00,
2013-05-26 06:50:00,69.7,-99.9,30.10,North,-999,0.0,0.0,0,0.00,,,-99.99,WeatherLink 5.5,2013-05-26 10:50:00,
2013-05-26 07:00:00,69.8,-22.6,30.10,North,-999,0.0,0.0,2,0.00,,,-99.99,WeatherLink 5.5,2013-05-26 11:00:00,
2013-05-26 07:06:00,69.8,-14.7,30.10,North,-999,0.0,0.0,3,0.00,,,-99.99,WeatherLink 5.5,2013-05-26 11:06:00,
2013-05-26 07:15:00,70.1,-99.9,30.10,North,-999,0.0,0.0,0,0.00,,,-99.99,WeatherLink 5.5,2013-05-26 11:15:00,
2013-05-26 07:25:00,70.4,-99.9,30.10,North,-999,0.0,0.0,0,0.00,,,-99.99,WeatherLink 5.5,2013-05-26 11:25:00,
2013-05-26 07:35:00,71.0,71.0,30.10,North,-999,0.0,0.0,100,0.00,,,-99.99,WeatherLink 5.5,2013-05-26 11:35:00,
2013-05-26 07:40:00,71.3,71.3,30.11,North,-999,0.0,0.0,100,0.00,,,-99.99,WeatherLink 5.5,2013-05-26 11:40:00,
2013-05-26 07:50:00,72.8,72.8,30.10,North,-999,0.0,0.0,100,0.00,,,-99.99,WeatherLink 5.5,2013-05-26 11:50:00,
2013-05-26 08:00:00,75.5,75.5,30.11,ENE,67,1.0,7.0,100,0.01,,,-99.99,WeatherLink 5.5,2013-05-26 12:00:00,
2013-05-26 08:10:00,77.3,35.5,30.11,ENE,67,2.0,8.0,22,0.01,,,-99.99,WeatherLink 5.5,2013-05-26 12:10:00,
2013-05-26 08:15:00,78.4,-99.9,30.12,East,90,1.0,8.0,0,0.01,,,-99.99,WeatherLink 5.5,2013-05-26 12:15:00,
2013-05-26 08:25:00,79.6,79.6,30.12,ENE,67,1.0,7.0,100,0.01,,,-99.99,WeatherLink 5.5,2013-05-26 12:25:00,
2013-05-26 08:30:00,80.0,80.0,30.12,ENE,67,1.0,7.0,100,0.01,,,-99.99,WeatherLink 5.5,2013-05-26 12:30:00,
2013-05-26 08:40:00,80.3,80.3,30.12,ENE,67,0.0,2.0,100,0.01,,,-99.99,WeatherLink 5.5,2013-05-26 12:40:00,
2013-05-26 08:45:00,80.8,80.8,30.12,ENE,67,1.0,7.0,100,0.01,,,-99.99,WeatherLink 5.5,2013-05-26 12:45:00,
2013-05-26 08:55:00,81.1,81.1,30.13,ENE,67,3.0,9.0,100,0.00,,,-99.99,WeatherLink 5.5,2013-05-26 12:55:00,
2013-05-26 09:00:00,81.3,81.3,30.13,NE,45,2.0,9.0,100,0.00,,,-99.99,WeatherLink 5.5,2013-05-26 13:00:00,
2013-05-26 09:10:00,81.8,81.8,30.13,ENE,67,3.0,9.0,100,0.00,,,-99.99,WeatherLink 5.5,2013-05-26 13:10:00,
2013-05-26 09:15:00,81.7,81.7,30.13,ENE,67,4.0,12.0,100,0.00,,,-99.99,WeatherLink 5.5,2013-05-26 13:15:00,
2013-05-26 09:25:00,82.0,82.0,30.13,East,90,4.0,11.0,100,0.00,,,-99.99,WeatherLink 5.5,2013-05-26 13:25:00,
2013-05-26 09:36:00,82.1,82.1,30.14,ESE,112,1.0,9.0,100,0.00,,,-99.99,WeatherLink 5.5,2013-05-26 13:36:00,
2013-05-26 09:45:00,82.6,81.0,30.14,NE,45,4.0,11.0,95,0.00,,,-99.99,WeatherLink 5.5,2013-05-26 13:45:00,
2013-05-26 09:51:00,82.6,80.0,30.14,East,90,3.0,9.0,92,0.00,,,-99.99,WeatherLink 5.5,2013-05-26 13:51:00,
2013-05-26 10:00:00,83.1,80.2,30.14,East,90,3.0,9.0,91,0.00,,,-99.99,WeatherLink 5.5,2013-05-26 14:00:00,
2013-05-26 10:10:00,83.0,78.7,30.14,East,90,3.0,9.0,87,0.00,,,-99.99,WeatherLink 5.5,2013-05-26 14:10:00,
2013-05-26 10:20:00,83.2,78.6,30.15,East,90,5.0,13.0,86,0.00,,,-99.99,WeatherLink 5.5,2013-05-26 14:20:00,
2013-05-26 10:25:00,83.4,78.1,30.15,East,90,4.0,13.0,84,0.00,,,-99.99,WeatherLink 5.5,2013-05-26 14:25:00,
2013-05-26 10:35:00,83.2,77.1,30.15,NE,45,4.0,10.0,82,0.00,,,-99.99,WeatherLink 5.5,2013-05-26 14:35:00,
2013-05-26 10:45:00,83.5,77.4,30.15,ENE,67,6.0,12.0,82,0.00,,,-99.99,WeatherLink 5.5,2013-05-26 14:45:00,
2013-05-26 10:55:00,83.5,76.3,30.16,ENE,67,4.0,11.0,79,0.00,,,-99.99,WeatherLink 5.5,2013-05-26 14:55:00,
2013-05-26 11:05:00,84.0,75.6,30.16,NE,45,6.0,11.0,76,0.00,,,-99.99,WeatherLink 5.5,2013-05-26 15:05:00,
2013-05-26 11:15:00,84.1,76.5,30.16,NE,45,5.0,12.0,78,0.00,,,-99.99,WeatherLink 5.5,2013-05-26 15:15:00,
2013-05-26 11:21:00,83.8,75.4,30.16,NE,45,4.0,13.0,76,0.00,,,-99.99,WeatherLink 5.5,2013-05-26 15:21:00,
2013-05-26 11:30:00,83.0,76.9,30.16,NE,45,2.0,9.0,82,0.00,,,-99.99,WeatherLink 5.5,2013-05-26 15:30:00,
2013-05-26 11:41:00,82.7,75.5,30.16,East,90,5.0,10.0,79,0.00,,,-99.99,WeatherLink 5.5,2013-05-26 15:41:00,
2013-05-26 11:50:00,83.6,76.4,30.16,ENE,67,5.0,13.0,79,0.00,,,-99.99,WeatherLink 5.5,2013-05-26 15:50:00,
2013-05-26 11:56:00,84.5,77.6,30.16,ENE,67,5.0,12.0,80,0.00,,,-99.99,WeatherLink 5.5,2013-05-26 15:56:00,
2013-05-26 12:05:00,84.7,76.7,30.16,ENE,67,6.0,14.0,77,0.00,,,-99.99,WeatherLink 5.5,2013-05-26 16:05:00,
2013-05-26 12:15:00,83.7,78.0,30.16,NE,45,5.0,12.0,83,0.00,,,-99.99,WeatherLink 5.5,2013-05-26 16:15:00,
2013-05-26 12:25:00,82.8,76.0,30.16,NE,45,6.0,14.0,80,0.00,,,-99.99,WeatherLink 5.5,2013-05-26 16:25:00,
2013-05-26 12:36:00,83.1,77.0,30.16,NE,45,6.0,13.0,82,0.00,,,-99.99,WeatherLink 5.5,2013-05-26 16:36:00,
2013-05-26 12:45:00,84.0,76.8,30.16,ENE,67,4.0,10.0,79,0.00,,,-99.99,WeatherLink 5.5,2013-05-26 16:45:00,
2013-05-26 12:55:00,84.1,76.9,30.16,ENE,67,5.0,11.0,79,0.00,,,-99.99,WeatherLink 5.5,2013-05-26 16:55:00,
2013-05-26 13:00:00,84.4,76.4,30.16,ENE,67,7.0,14.0,77,0.00,,,-99.99,WeatherLink 5.5,2013-05-26 17:00:00,
2013-05-26 13:05:00,83.7,76.5,30.16,ENE,67,5.0,12.0,79,0.00,,,-99.99,WeatherLink 5.5,2013-05-26 17:05:00,
2013-05-26 13:15:00,83.1,76.3,30.16,NE,45,7.0,17.0,80,0.00,,,-99.99,WeatherLink 5.5,2013-05-26 17:15:00,
2013-05-26 13:25:00,83.0,76.2,30.15,ENE,67,6.0,13.0,80,0.00,,,-99.99,WeatherLink 5.5,2013-05-26 17:25:00,
2013-05-26 13:35:00,83.8,75.4,30.15,ENE,67,6.0,12.0,76,0.00,,,-99.99,WeatherLink 5.5,2013-05-26 17:35:00,
2013-05-26 13:41:00,84.1,76.5,30.15,ENE,67,6.0,13.0,78,0.00,,,-99.99,WeatherLink 5.5,2013-05-26 17:41:00,
2013-05-26 13:50:00,84.6,75.4,30.15,East,90,6.0,12.0,74,0.00,,,-99.99,WeatherLink 5.5,2013-05-26 17:50:00,
2013-05-26 14:00:00,84.6,75.8,30.15,NE,45,6.0,13.0,75,0.00,,,-99.99,WeatherLink 5.5,2013-05-26 18:00:00,
2013-05-26 14:05:00,84.6,75.0,30.15,NE,45,6.0,12.0,73,0.00,,,-99.99,WeatherLink 5.5,2013-05-26 18:05:00,
2013-05-26 14:15:00,84.7,74.7,30.14,ENE,67,5.0,12.0,72,0.00,,,-99.99,WeatherLink 5.5,2013-05-26 18:15:00,
2013-05-26 14:26:00,85.1,74.6,30.14,ENE,67,5.0,13.0,71,0.00,,,-99.99,WeatherLink 5.5,2013-05-26 18:26:00,
2013-05-26 14:36:00,85.3,74.8,30.14,ENE,67,5.0,12.0,71,0.00,,,-99.99,WeatherLink 5.5,2013-05-26 18:36:00,
2013-05-26 14:45:00,85.0,75.0,30.13,ENE,67,5.0,13.0,72,0.00,,,-99.99,WeatherLink 5.5,2013-05-26 18:45:00,
2013-05-26 14:55:00,84.7,73.4,30.14,ENE,67,7.0,14.0,69,0.00,,,-99.99,WeatherLink 5.5,2013-05-26 18:55:00,
2013-05-26 15:00:00,84.6,74.2,30.13,NE,45,7.0,12.0,71,0.00,,,-99.99,WeatherLink 5.5,2013-05-26 19:00:00,
2013-05-26 15:10:00,85.3,74.4,30.13,NE,45,6.0,13.0,70,0.00,,,-99.99,WeatherLink 5.5,2013-05-26 19:10:00,
2013-05-26 15:16:00,85.1,73.3,30.13,East,90,6.0,12.0,68,0.00,,,-99.99,WeatherLink 5.5,2013-05-26 19:16:00,
2013-05-26 15:25:00,84.8,74.3,30.13,ENE,67,5.0,11.0,71,0.00,,,-99.99,WeatherLink 5.5,2013-05-26 19:25:00,
2013-05-26 15:36:00,84.7,72.5,30.12,ENE,67,9.0,16.0,67,0.00,,,-99.99,WeatherLink 5.5,2013-05-26 19:36:00,
2013-05-26 15:45:00,83.6,72.8,30.12,NE,45,7.0,14.0,70,0.00,,,-99.99,WeatherLink 5.5,2013-05-26 19:45:00,
2013-05-26 15:50:00,83.4,73.4,30.12,NE,45,5.0,12.0,72,0.00,,,-99.99,WeatherLink 5.5,2013-05-26 19:50:00,
2013-05-26 16:00:00,83.3,72.9,30.12,NE,45,6.0,12.0,71,0.00,,,-99.99,WeatherLink 5.5,2013-05-26 20:00:00,
2013-05-26 16:06:00,83.5,73.1,30.12,ENE,67,6.0,12.0,71,0.00,,,-99.99,WeatherLink 5.5,2013-05-26 20:06:00,
2013-05-26 16:15:00,83.3,72.9,30.12,NNE,22,5.0,14.0,71,0.00,,,-99.99,WeatherLink 5.5,2013-05-26 20:15:00,
2013-05-26 16:25:00,83.8,74.2,30.12,NNE,22,6.0,14.0,73,0.00,,,-99.99,WeatherLink 5.5,2013-05-26 20:25:00,
2013-05-26 16:31:00,83.7,74.1,30.12,NE,45,4.0,12.0,73,0.00,,,-99.99,WeatherLink 5.5,2013-05-26 20:31:00,
2013-05-26 16:40:00,84.2,74.2,30.11,ENE,67,3.0,11.0,72,0.00,,,-99.99,WeatherLink 5.5,2013-05-26 20:40:00,
2013-05-26 16:51:00,83.8,73.4,30.11,NE,45,7.0,13.0,71,0.00,,,-99.99,WeatherLink 5.5,2013-05-26 20:51:00,
2013-05-26 17:00:00,82.9,73.4,30.11,NE,45,6.0,13.0,73,0.00,,,-99.99,WeatherLink 5.5,2013-05-26 21:00:00,
2013-05-26 17:10:00,82.3,73.6,30.11,NE,45,6.0,13.0,75,0.00,,,-99.99,WeatherLink 5.5,2013-05-26 21:10:00,
2013-05-26 17:20:00,82.2,73.5,30.10,ENE,67,6.0,13.0,75,0.00,,,-99.99,WeatherLink 5.5,2013-05-26 21:20:00,
2013-05-26 17:25:00,81.6,73.7,30.10,ENE,67,5.0,12.0,77,0.00,,,-99.99,WeatherLink 5.5,2013-05-26 21:25:00,
2013-05-26 17:35:00,81.4,74.3,30.10,NE,45,4.0,11.0,79,0.00,,,-99.99,WeatherLink 5.5,2013-05-26 21:35:00,
2013-05-26 17:45:00,81.8,74.3,30.10,NE,45,6.0,12.0,78,0.00,,,-99.99,WeatherLink 5.5,2013-05-26 21:45:00,
2013-05-26 17:55:00,81.6,74.1,30.10,NNE,22,5.0,15.0,78,0.00,,,-99.99,WeatherLink 5.5,2013-05-26 21:55:00,
2013-05-26 18:05:00,81.4,73.5,30.10,NE,45,4.0,11.0,77,0.00,,,-99.99,WeatherLink 5.5,2013-05-26 22:05:00,
2013-05-26 18:10:00,81.5,74.0,30.10,NNE,22,4.0,11.0,78,0.00,,,-99.99,WeatherLink 5.5,2013-05-26 22:10:00,
2013-05-26 18:20:00,81.2,73.3,30.10,NE,45,4.0,13.0,77,0.00,,,-99.99,WeatherLink 5.5,2013-05-26 22:20:00,
2013-05-26 18:26:00,81.2,73.7,30.10,NE,45,3.0,14.0,78,0.00,,,-99.99,WeatherLink 5.5,2013-05-26 22:26:00,
2013-05-26 18:31:00,81.2,73.3,30.09,NE,45,5.0,12.0,77,0.00,,,-99.99,WeatherLink 5.5,2013-05-26 22:31:00,
2013-05-26 18:40:00,80.5,72.6,30.09,NE,45,5.0,12.0,77,0.00,,,-99.99,WeatherLink 5.5,2013-05-26 22:40:00,
2013-05-26 18:45:00,80.1,73.0,30.09,NE,45,4.0,12.0,79,0.00,,,-99.99,WeatherLink 5.5,2013-05-26 22:45:00,
2013-05-26 18:55:00,79.7,73.0,30.10,NE,45,4.0,12.0,80,0.00,,,-99.99,WeatherLink 5.5,2013-05-26 22:55:00,
2013-05-26 19:06:00,79.4,72.7,30.10,NE,45,3.0,13.0,80,0.00,,,-99.99,WeatherLink 5.5,2013-05-26 23:06:00,
2013-05-26 19:15:00,79.2,72.5,30.10,NNE,22,3.0,10.0,80,0.00,,,-99.99,WeatherLink 5.5,2013-05-26 23:15:00,
2013-05-26 19:25:00,79.0,72.7,30.10,NE,45,3.0,12.0,81,0.00,,,-99.99,WeatherLink 5.5,2013-05-26 23:25:00,
2013-05-26 19:35:00,78.8,72.8,30.10,NE,45,2.0,8.0,82,0.00,,,-99.99,WeatherLink 5.5,2013-05-26 23:35:00,
2013-05-26 19:40:00,78.8,72.8,30.10,NE,45,4.0,12.0,82,0.00,,,-99.99,WeatherLink 5.5,2013-05-26 23:40:00,
2013-05-26 19:50:00,78.5,72.2,30.11,NE,45,6.0,14.0,81,0.00,,,-99.99,WeatherLink 5.5,2013-05-26 23:50:00,
2013-05-26 20:00:00,78.4,72.8,30.11,NNE,22,2.0,9.0,83,0.00,,,-99.99,WeatherLink 5.5,2013-05-27 00:00:00,
2013-05-26 20:10:00,78.2,73.0,30.11,NNE,22,2.0,8.0,84,0.00,,,-99.99,WeatherLink 5.5,2013-05-27 00:10:00,
2013-05-26 20:15:00,78.1,73.2,30.11,NE,45,3.0,11.0,85,0.00,,,-99.99,WeatherLink 5.5,2013-05-27 00:15:00,
2013-05-26 20:25:00,78.0,73.8,30.10,NE,45,3.0,8.0,87,0.00,,,-99.99,WeatherLink 5.5,2013-05-27 00:25:00,
2013-05-26 20:31:00,77.9,73.7,30.11,NE,45,4.0,11.0,87,0.00,,,-99.99,WeatherLink 5.5,2013-05-27 00:31:00,
2013-05-26 20:36:00,77.8,73.6,30.11,NNE,22,4.0,11.0,87,0.00,,,-99.99,WeatherLink 5.5,2013-05-27 00:36:00,
2013-05-26 20:46:00,77.7,74.2,30.11,NNE,22,4.0,10.0,89,0.00,,,-99.99,WeatherLink 5.5,2013-05-27 00:46:00,
2013-05-26 20:55:00,77.6,74.1,30.11,NE,45,2.0,10.0,89,0.00,,,-99.99,WeatherLink 5.5,2013-05-27 00:55:00,
2013-05-26 21:05:00,77.6,75.1,30.11,NE,45,4.0,11.0,92,0.00,,,-99.99,WeatherLink 5.5,2013-05-27 01:05:00,
2013-05-26 21:15:00,77.5,75.0,30.12,NE,45,4.0,12.0,92,0.00,,,-99.99,WeatherLink 5.5,2013-05-27 01:15:00,
2013-05-26 21:21:00,77.5,75.0,30.11,ENE,67,4.0,14.0,92,0.00,,,-99.99,WeatherLink 5.5,2013-05-27 01:21:00,
2013-05-26 21:30:00,77.4,75.2,30.12,ENE,67,2.0,7.0,93,0.00,,,-99.99,WeatherLink 5.5,2013-05-27 01:30:00,
2013-05-26 21:35:00,77.4,75.2,30.12,ENE,67,2.0,11.0,93,0.00,,,-99.99,WeatherLink 5.5,2013-05-27 01:35:00,
2013-05-26 21:41:00,77.3,74.8,30.12,NE,45,2.0,9.0,92,0.00,,,-99.99,WeatherLink 5.5,2013-05-27 01:41:00,
2013-05-26 21:51:00,77.2,74.0,30.13,NE,45,1.0,7.0,90,0.00,,,-99.99,WeatherLink 5.5,2013-05-27 01:51:00,
2013-05-26 21:55:00,77.1,73.9,30.12,NE,45,1.0,6.0,90,0.00,,,-99.99,WeatherLink 5.5,2013-05-27 01:55:00,
2013-05-26 21:56:00,77.1,73.9,30.12,NE,45,2.0,5.0,90,0.00,,,-99.99,WeatherLink 5.5,2013-05-27 01:56:00,
2013-05-26 22:05:00,77.0,73.5,30.13,ENE,67,2.0,10.0,89,0.00,,,-99.99,WeatherLink 5.5,2013-05-27 02:05:00,
2013-05-26 22:10:00,77.1,73.6,30.13,ENE,67,3.0,10.0,89,0.00,,,-99.99,WeatherLink 5.5,2013-05-27 02:10:00,
2013-05-26 22:21:00,77.2,74.4,30.13,ENE,67,2.0,8.0,91,0.00,,,-99.99,WeatherLink 5.5,2013-05-27 02:21:00,
2013-05-26 22:30:00,77.1,74.6,30.13,ENE,67,4.0,12.0,92,0.00,,,-99.99,WeatherLink 5.5,2013-05-27 02:30:00,
2013-05-26 22:40:00,77.2,74.7,30.13,NE,45,4.0,11.0,92,0.00,,,-99.99,WeatherLink 5.5,2013-05-27 02:40:00,
2013-05-26 22:50:00,77.2,74.7,30.14,ENE,67,3.0,9.0,92,0.00,,,-99.99,WeatherLink 5.5,2013-05-27 02:50:00,
2013-05-26 22:55:00,77.2,74.7,30.14,ENE,67,3.0,10.0,92,0.00,,,-99.99,WeatherLink 5.5,2013-05-27 02:55:00,
2013-05-26 23:05:00,77.2,74.4,30.14,ENE,67,2.0,8.0,91,0.00,,,-99.99,WeatherLink 5.5,2013-05-27 03:05:00,
2013-05-26 23:10:00,77.2,74.4,30.14,ENE,67,5.0,12.0,91,0.00,,,-99.99,WeatherLink 5.5,2013-05-27 03:10:00,
2013-05-26 23:20:00,77.2,74.4,30.14,ENE,67,4.0,10.0,91,0.00,,,-99.99,WeatherLink 5.5,2013-05-27 03:20:00,
2013-05-26 23:26:00,77.2,74.7,30.14,ENE,67,3.0,10.0,92,0.00,,,-99.99,WeatherLink 5.5,2013-05-27 03:26:00,
2013-05-26 23:35:00,77.0,74.2,30.14,NE,45,3.0,9.0,91,0.00,,,-99.99,WeatherLink 5.5,2013-05-27 03:35:00,
2013-05-26 23:45:00,76.9,73.4,30.14,NE,45,3.0,12.0,89,0.00,,,-99.99,WeatherLink 5.5,2013-05-27 03:45:00,
2013-05-26 23:50:00,76.9,73.4,30.14,ENE,67,4.0,11.0,89,0.00,,,-99.99,WeatherLink 5.5,2013-05-27 03:50:00,